Time;durP1;ratioP1;P1;durP2;ratioP2;P2;SDS_P1;SDS_P2;PMS_P1;PMS_P2;Temp;Humidity;BMP_temperature;BMP_pressure;BME280_temperature;BME280_humidity;BME280_pressure;Samples;Min_cycle;Max_cycle;Signal;HPM_P1;HPM_P2
2022/05/19 00:01:01;;;;;;;4.88;4.45;;;18.80;99.90;;;;;;5070168;28;20213;-74
2022/05/19 00:03:27;;;;;;;6.18;5.20;;;18.80;99.90;;;;;;5053040;28;20222;-75
2022/05/19 00:05:52;;;;;;;5.40;4.97;;;18.70;99.90;;;;;;5086665;28;20434;-75
2022/05/19 00:08:18;;;;;;;6.85;5.78;;;18.60;99.90;;;;;;5079911;28;20206;-74
2022/05/19 00:10:44;;;;;;;7.95;6.13;;;18.60;99.90;;;;;;5091149;28;20690;-75
2022/05/19 00:13:09;;;;;;;6.28;4.85;;;18.60;99.90;;;;;;5073118;28;20678;-75
2022/05/19 00:15:35;;;;;;;5.63;5.10;;;18.60;99.90;;;;;;5091204;28;20583;-74
2022/05/19 00:18:00;;;;;;;6.45;5.43;;;18.50;99.90;;;;;;5066096;28;20204;-73
2022/05/19 00:20:26;;;;;;;5.50;4.95;;;18.50;99.90;;;;;;5085507;28;20186;-75
2022/05/19 00:22:53;;;;;;;5.10;4.65;;;18.50;99.90;;;;;;5091656;28;20237;-75
2022/05/19 00:25:19;;;;;;;9.80;5.47;;;18.50;99.90;;;;;;5091082;28;20198;-74
2022/05/19 00:27:44;;;;;;;6.10;5.10;;;18.40;99.90;;;;;;5090617;28;20690;-75
2022/05/19 00:30:10;;;;;;;8.07;4.88;;;18.30;99.90;;;;;;5072458;28;20206;-75
2022/05/19 00:32:35;;;;;;;8.90;6.20;;;18.30;99.90;;;;;;5090935;28;20531;-74
2022/05/19 00:35:01;;;;;;;7.93;4.78;;;18.30;99.90;;;;;;5073257;28;20689;-75
2022/05/19 00:37:26;;;;;;;10.27;5.03;;;18.30;99.90;;;;;;5090768;28;20209;-75
2022/05/19 00:39:52;;;;;;;7.93;4.80;;;18.30;99.90;;;;;;5090270;28;20289;-75
2022/05/19 00:45:03;;;;;;;6.57;5.00;;;18.20;99.90;;;;;;5090975;28;20653;-75
2022/05/19 00:47:35;;;;;;;6.75;4.72;;;18.20;99.90;;;;;;5090342;28;20659;-74
2022/05/19 00:50:04;;;;;;;8.13;4.97;;;18.20;99.90;;;;;;5084221;28;20199;-75
2022/05/19 00:52:35;;;;;;;7.20;5.65;;;18.20;99.90;;;;;;5090587;28;20213;-75
2022/05/19 00:55:08;;;;;;;7.00;4.65;;;18.20;99.90;;;;;;5090802;28;20348;-75
2022/05/19 00:57:40;;;;;;;5.10;4.60;;;18.10;99.90;;;;;;5092124;28;20263;-78
2022/05/19 01:00:14;;;;;;;6.45;4.78;;;18.00;99.90;;;;;;5073827;28;20214;-75
2022/05/19 01:02:45;;;;;;;11.95;6.03;;;18.00;99.90;;;;;;5092229;28;20202;-75
2022/05/19 01:05:18;;;;;;;5.82;5.22;;;18.10;99.90;;;;;;5087397;28;20815;-75
2022/05/19 01:07:53;;;;;;;8.95;4.90;;;18.00;99.90;;;;;;5094058;28;20237;-75
2022/05/19 01:10:19;;;;;;;5.82;5.22;;;18.00;99.90;;;;;;5094176;28;20625;-76
2022/05/19 01:12:47;;;;;;;6.30;4.78;;;18.00;99.90;;;;;;5094592;28;20206;-75
2022/05/19 01:15:14;;;;;;;6.18;5.07;;;18.00;99.90;;;;;;5076423;28;20209;-75
2022/05/19 01:17:40;;;;;;;7.60;5.35;;;17.90;99.90;;;;;;5075757;28;20206;-75
2022/05/19 01:20:17;;;;;;;7.68;5.05;;;17.90;99.90;;;;;;5083519;28;20227;-76
2022/05/19 01:22:52;;;;;;;5.82;4.80;;;17.90;99.90;;;;;;5094300;28;20235;-76
2022/05/19 01:25:47;;;;;;;8.43;5.07;;;17.90;99.90;;;;;;5076375;28;20197;-76
2022/05/19 01:28:13;;;;;;;6.85;4.90;;;17.90;99.90;;;;;;5093717;28;20574;-76
2022/05/19 01:30:40;;;;;;;4.70;4.20;;;17.80;99.90;;;;;;5094124;28;20209;-76
2022/05/19 01:33:05;;;;;;;6.38;4.97;;;17.80;99.90;;;;;;5094363;28;20206;-75
2022/05/19 01:35:34;;;;;;;7.53;5.07;;;17.70;99.90;;;;;;5090966;28;20646;-74
2022/05/19 01:38:02;;;;;;;6.50;4.88;;;17.80;99.90;;;;;;5091590;28;20574;-79
2022/05/19 01:40:49;;;;;;;6.90;4.85;;;17.70;99.90;;;;;;5073919;28;20690;-75
2022/05/19 01:43:35;;;;;;;7.82;5.00;;;17.70;99.90;;;;;;5075688;28;20760;-75
2022/05/19 01:46:29;;;;;;;6.28;4.53;;;17.70;99.90;;;;;;5075734;28;20286;-76
2022/05/19 01:49:00;;;;;;;5.25;4.75;;;17.60;99.90;;;;;;5067372;28;20202;-76
2022/05/19 01:51:50;;;;;;;7.57;5.03;;;17.60;99.90;;;;;;5093787;28;20708;-76
2022/05/19 01:54:27;;;;;;;5.13;4.63;;;17.70;99.90;;;;;;5075556;28;20712;-76
2022/05/19 01:57:05;;;;;;;9.35;4.68;;;17.60;99.90;;;;;;5079194;28;20198;-76
2022/05/19 01:59:45;;;;;;;6.72;5.18;;;17.60;99.90;;;;;;5074546;28;20649;-76
2022/05/19 02:02:53;;;;;;;7.60;4.70;;;17.50;99.90;;;;;;5094166;28;20740;-76
2022/05/19 02:05:28;;;;;;;7.43;4.88;;;17.50;99.90;;;;;;5072854;28;20210;-75
2022/05/19 02:07:58;;;;;;;5.18;4.68;;;17.40;99.90;;;;;;5093153;28;20217;-75
2022/05/19 02:10:27;;;;;;;6.72;5.00;;;17.30;99.90;;;;;;5074436;28;20217;-76
2022/05/19 02:12:55;;;;;;;5.65;4.90;;;17.40;99.90;;;;;;5093356;28;20198;-75
2022/05/19 02:15:24;;;;;;;5.70;5.00;;;17.40;99.90;;;;;;5075299;28;20722;-76
2022/05/19 02:17:51;;;;;;;6.00;4.35;;;17.40;99.90;;;;;;5089858;28;20209;-76
2022/05/19 02:20:21;;;;;;;5.30;4.80;;;17.40;99.90;;;;;;5085588;28;20182;-75
2022/05/19 02:22:47;;;;;;;5.43;4.85;;;17.40;99.90;;;;;;5077128;28;20267;-75
2022/05/19 02:25:18;;;;;;;7.15;5.00;;;17.30;99.90;;;;;;5093176;28;20206;-75
2022/05/19 02:27:52;;;;;;;5.63;4.38;;;17.20;99.90;;;;;;5074709;28;20234;-75
2022/05/19 02:30:28;;;;;;;8.02;4.57;;;17.30;99.90;;;;;;5092836;28;20202;-75
2022/05/19 02:32:54;;;;;;;7.55;4.50;;;17.20;99.90;;;;;;5057137;28;20573;-75
2022/05/19 02:35:20;;;;;;;6.03;4.68;;;17.20;99.90;;;;;;5073469;28;20179;-76
2022/05/19 02:37:45;;;;;;;7.88;4.82;;;17.20;99.90;;;;;;5072325;28;20210;-75
2022/05/19 02:40:16;;;;;;;6.65;4.93;;;17.10;99.90;;;;;;5072182;28;20195;-76
2022/05/19 02:42:42;;;;;;;5.25;4.35;;;17.10;99.90;;;;;;5072104;28;20219;-75
2022/05/19 02:45:08;;;;;;;12.23;5.10;;;17.10;99.90;;;;;;5054987;28;20238;-79
2022/05/19 02:47:34;;;;;;;4.80;4.15;;;17.10;99.90;;;;;;5072286;28;20648;-77
2022/05/19 02:50:00;;;;;;;5.45;4.72;;;17.10;99.90;;;;;;5054444;28;20173;-77
2022/05/19 02:52:25;;;;;;;5.90;4.70;;;17.00;99.90;;;;;;5072055;28;20211;-77
2022/05/19 02:54:51;;;;;;;6.80;4.55;;;16.90;99.90;;;;;;5072409;28;20217;-77
2022/05/19 02:57:16;;;;;;;7.20;4.57;;;17.00;99.90;;;;;;5072135;28;20640;-77
2022/05/19 02:59:43;;;;;;;6.97;4.40;;;17.00;99.90;;;;;;5071245;28;20207;-76
2022/05/19 03:02:09;;;;;;;5.45;4.28;;;17.00;99.90;;;;;;5071592;28;20195;-77
2022/05/19 03:04:34;;;;;;;10.27;5.18;;;17.00;99.90;;;;;;5052587;28;20210;-75
2022/05/19 03:07:00;;;;;;;5.80;4.40;;;17.00;99.90;;;;;;5054232;28;20203;-76
2022/05/19 03:09:25;;;;;;;10.05;4.60;;;17.00;99.90;;;;;;5053053;28;20210;-76
2022/05/19 03:11:51;;;;;;;7.13;4.22;;;17.00;99.90;;;;;;5072008;28;20690;-78
2022/05/19 03:14:16;;;;;;;6.38;4.20;;;17.00;99.90;;;;;;5072579;28;20167;-76
2022/05/19 03:16:42;;;;;;;7.22;4.32;;;17.10;99.90;;;;;;5071802;28;20249;-76
2022/05/19 03:19:09;;;;;;;6.43;3.92;;;17.00;99.90;;;;;;5053065;28;20209;-78
2022/05/19 03:21:35;;;;;;;7.53;4.10;;;17.00;99.90;;;;;;5071550;28;20234;-76
2022/05/19 03:24:01;;;;;;;6.53;4.63;;;17.00;99.90;;;;;;5071637;28;20206;-77
2022/05/19 03:26:28;;;;;;;6.57;4.65;;;17.00;99.90;;;;;;5053808;28;20290;-77
2022/05/19 03:28:53;;;;;;;5.88;4.57;;;17.10;99.90;;;;;;5071204;28;20278;-76
2022/05/19 03:31:19;;;;;;;5.30;4.35;;;17.20;99.90;;;;;;5071510;28;20284;-77
2022/05/19 03:33:44;;;;;;;6.68;4.40;;;17.20;99.90;;;;;;5068676;28;20198;-76
2022/05/19 03:36:10;;;;;;;6.75;4.32;;;17.20;99.90;;;;;;5071641;28;20691;-77
2022/05/19 03:38:36;;;;;;;4.55;4.15;;;17.40;99.90;;;;;;5070530;28;20285;-76
2022/05/19 03:41:02;;;;;;;6.82;4.43;;;18.20;99.90;;;;;;5053778;28;20171;-77
2022/05/19 03:43:27;;;;;;;6.68;4.35;;;18.60;99.90;;;;;;5071051;28;20260;-76
2022/05/19 03:45:53;;;;;;;7.57;4.18;;;19.40;99.90;;;;;;5053521;28;20199;-75
2022/05/19 03:48:19;;;;;;;5.75;4.55;;;20.00;99.90;;;;;;5070466;28;20252;-76
2022/05/19 03:50:46;;;;;;;7.90;4.13;;;20.00;99.90;;;;;;5071221;28;20231;-75
2022/05/19 03:53:12;;;;;;;9.00;4.43;;;20.40;99.90;;;;;;5071811;28;20183;-76
2022/05/19 03:55:37;;;;;;;6.07;4.32;;;20.40;99.90;;;;;;5070961;28;20214;-76
2022/05/19 03:58:04;;;;;;;6.28;4.55;;;20.90;99.90;;;;;;5070348;28;20219;-73
2022/05/19 04:00:31;;;;;;;7.47;4.40;;;21.30;99.90;;;;;;5053069;28;20202;-74
2022/05/19 04:02:58;;;;;;;5.82;3.83;;;22.30;99.90;;;;;;5068126;28;20241;-72
2022/05/19 04:05:25;;;;;;;6.75;5.03;;;23.10;99.90;;;;;;5070928;28;20203;-73
2022/05/19 04:07:50;;;;;;;4.28;3.70;;;23.60;99.90;;;;;;5052993;28;20200;-74
2022/05/19 04:10:16;;;;;;;6.60;4.10;;;22.90;99.90;;;;;;5070648;28;20683;-74
2022/05/19 04:12:43;;;;;;;6.03;3.92;;;21.50;99.90;;;;;;5070617;28;20199;-76
2022/05/19 04:15:10;;;;;;;10.82;4.18;;;20.80;99.90;;;;;;5070994;28;20195;-74
2022/05/19 04:17:35;;;;;;;5.20;4.35;;;19.90;99.90;;;;;;5070482;28;20274;-75
2022/05/19 04:20:02;;;;;;;7.13;4.43;;;19.20;99.90;;;;;;5070725;28;20682;-75
2022/05/19 04:22:28;;;;;;;7.85;5.00;;;19.00;99.90;;;;;;5070406;28;20566;-76
2022/05/19 04:24:53;;;;;;;10.95;4.60;;;18.80;99.90;;;;;;5070858;28;20206;-75
2022/05/19 04:27:19;;;;;;;7.13;4.28;;;18.70;99.90;;;;;;5070591;28;20246;-75
2022/05/19 04:29:47;;;;;;;9.30;4.30;;;18.70;99.90;;;;;;5069838;28;20210;-76
2022/05/19 04:32:12;;;;;;;8.75;4.75;;;18.90;99.90;;;;;;5067521;28;20205;-75
2022/05/19 04:34:38;;;;;;;5.63;4.40;;;20.30;99.90;;;;;;5069480;28;20754;-76
2022/05/19 04:37:03;;;;;;;4.60;4.20;;;21.40;99.90;;;;;;5070587;28;20213;-77
2022/05/19 04:39:29;;;;;;;7.57;4.72;;;22.20;99.90;;;;;;5069663;28;20227;-79
2022/05/19 04:41:54;;;;;;;5.55;3.65;;;21.90;99.90;;;;;;5066090;28;20207;-75
2022/05/19 04:44:20;;;;;;;5.95;4.32;;;22.90;99.90;;;;;;5071296;28;20197;-74
2022/05/19 04:46:46;;;;;;;5.68;4.40;;;22.30;99.90;;;;;;5045222;28;20632;-78
2022/05/19 04:49:11;;;;;;;7.57;3.92;;;23.00;99.90;;;;;;5070283;28;20341;-75
2022/05/19 04:51:37;;;;;;;5.68;3.83;;;23.80;99.90;;;;;;5071566;28;20203;-75
2022/05/19 04:54:02;;;;;;;7.40;4.57;;;23.90;99.90;;;;;;5071184;28;20255;-76
2022/05/19 04:56:30;;;;;;;6.13;3.90;;;24.60;99.90;;;;;;5070304;28;20199;-74
2022/05/19 04:58:56;;;;;;;5.30;4.03;;;25.70;99.90;;;;;;5056915;28;20206;-75
2022/05/19 05:01:21;;;;;;;6.65;3.63;;;25.90;99.90;;;;;;5072731;28;20211;-74
2022/05/19 05:03:47;;;;;;;6.50;4.05;;;27.10;99.90;;;;;;5070467;28;20581;-77
2022/05/19 05:06:12;;;;;;;6.20;3.70;;;27.10;99.90;;;;;;5070484;28;20288;-76
2022/05/19 05:08:38;;;;;;;5.15;3.92;;;27.20;99.90;;;;;;5069532;28;20225;-76
2022/05/19 05:11:03;;;;;;;4.70;3.58;;;27.70;99.90;;;;;;5070653;28;20592;-76
2022/05/19 05:13:29;;;;;;;8.40;4.18;;;28.30;99.50;;;;;;5068084;28;20387;-75
2022/05/19 05:15:55;;;;;;;5.72;3.70;;;27.30;99.30;;;;;;5052396;28;20577;-75
2022/05/19 05:18:20;;;;;;;5.28;4.18;;;27.10;99.10;;;;;;5069432;28;20207;-76
2022/05/19 05:20:46;;;;;;;6.35;3.72;;;27.70;99.10;;;;;;5070126;28;20199;-77
2022/05/19 05:23:12;;;;;;;7.20;4.18;;;26.80;98.70;;;;;;5070836;28;20187;-76
2022/05/19 05:25:37;;;;;;;5.47;3.97;;;27.10;98.90;;;;;;5070170;28;20703;-76
2022/05/19 05:28:03;;;;;;;4.80;4.07;;;27.00;99.40;;;;;;5069461;28;20211;-76
2022/05/19 05:30:29;;;;;;;6.30;3.58;;;26.70;99.30;;;;;;5070113;28;20256;-76
2022/05/19 05:32:55;;;;;;;5.47;3.97;;;26.90;98.70;;;;;;5052286;28;20252;-77
2022/05/19 05:35:20;;;;;;;6.57;4.00;;;26.10;99.60;;;;;;5070833;28;20229;-76
2022/05/19 05:37:46;;;;;;;5.90;4.60;;;25.60;99.90;;;;;;5070261;28;20199;-76
2022/05/19 05:40:12;;;;;;;4.55;3.97;;;25.60;99.90;;;;;;5051605;28;20211;-77
2022/05/19 05:42:39;;;;;;;7.35;3.83;;;25.30;99.90;;;;;;5049939;28;20229;-76
2022/05/19 05:45:06;;;;;;;8.23;4.50;;;24.30;99.90;;;;;;5073738;28;20195;-76
2022/05/19 05:47:31;;;;;;;5.32;4.82;;;23.40;99.90;;;;;;5055501;28;20179;-76
2022/05/19 05:49:57;;;;;;;9.02;4.45;;;23.40;99.90;;;;;;5073371;28;20175;-76
2022/05/19 05:52:22;;;;;;;12.43;5.72;;;22.80;99.90;;;;;;5065848;28;20246;-77
2022/05/19 05:54:48;;;;;;;10.00;4.75;;;22.60;99.90;;;;;;5073206;28;20206;-76
2022/05/19 05:57:14;;;;;;;6.43;4.35;;;23.00;99.90;;;;;;5055408;28;20195;-76
2022/05/19 05:59:41;;;;;;;8.25;4.28;;;23.20;99.90;;;;;;5114569;22;20237;-76
2022/05/19 06:02:07;;;;;;;8.65;5.28;;;22.50;99.90;;;;;;5114070;28;20180;-76
2022/05/19 06:04:32;;;;;;;7.40;4.28;;;22.70;99.90;;;;;;5094992;28;20213;-76
2022/05/19 06:06:58;;;;;;;8.18;4.32;;;22.40;99.90;;;;;;5113447;28;20217;-76
2022/05/19 06:09:23;;;;;;;7.25;4.20;;;22.90;99.90;;;;;;5115415;27;20300;-76
2022/05/19 06:11:49;;;;;;;7.03;5.03;;;23.10;99.90;;;;;;5110832;28;20202;-76
2022/05/19 06:14:14;;;;;;;8.70;4.70;;;23.50;99.90;;;;;;5100298;28;20169;-76
2022/05/19 06:16:40;;;;;;;10.15;5.18;;;24.20;99.90;;;;;;5113309;28;20214;-76
2022/05/19 06:19:05;;;;;;;9.30;4.18;;;23.80;99.90;;;;;;5112459;28;20205;-76
2022/05/19 06:21:34;;;;;;;8.35;4.30;;;24.70;99.90;;;;;;5097221;28;20640;-76
2022/05/19 06:23:59;;;;;;;10.18;3.88;;;25.10;99.90;;;;;;5113381;28;20213;-76
2022/05/19 06:26:26;;;;;;;10.30;4.80;;;24.70;99.90;;;;;;5114903;27;20187;-76
2022/05/19 06:28:52;;;;;;;8.25;5.03;;;24.90;99.90;;;;;;5094368;28;20206;-76
2022/05/19 06:31:18;;;;;;;11.00;4.45;;;24.90;99.90;;;;;;5095039;28;20205;-76
2022/05/19 06:33:43;;;;;;;13.80;4.63;;;25.00;99.90;;;;;;5114663;27;20257;-76
2022/05/19 06:36:10;;;;;;;14.00;4.72;;;25.30;99.90;;;;;;5113810;27;20206;-76
2022/05/19 06:38:37;;;;;;;13.40;4.65;;;25.50;99.90;;;;;;5095076;28;20570;-76
2022/05/19 06:43:47;;;;;;;9.10;4.40;;;26.30;99.90;;;;;;5104869;28;20224;-75
2022/05/19 06:46:13;;;;;;;13.93;4.95;;;26.80;99.90;;;;;;5112341;27;20248;-75
2022/05/19 06:48:38;;;;;;;5.35;4.30;;;26.80;99.90;;;;;;5114062;27;20262;-74
2022/05/19 06:51:04;;;;;;;8.45;4.18;;;27.30;99.90;;;;;;5112680;28;20201;-76
2022/05/19 06:53:29;;;;;;;6.95;4.18;;;27.10;99.90;;;;;;5114503;27;20192;-72
2022/05/19 06:55:55;;;;;;;6.95;4.43;;;27.50;99.90;;;;;;5112450;28;20185;-73
2022/05/19 06:58:20;;;;;;;7.55;4.60;;;28.10;99.90;;;;;;5113513;27;20205;-73
2022/05/19 07:00:46;;;;;;;12.00;4.72;;;28.50;99.70;;;;;;5115438;27;20209;-73
2022/05/19 07:03:11;;;;;;;7.10;4.22;;;28.00;99.50;;;;;;5098650;28;20822;-74
2022/05/19 07:05:38;;;;;;;8.52;4.05;;;28.20;99.70;;;;;;5102155;27;20193;-73
2022/05/19 07:08:04;;;;;;;8.55;4.53;;;28.90;99.40;;;;;;5111846;27;20179;-74
2022/05/19 07:10:30;;;;;;;10.23;4.95;;;29.10;98.10;;;;;;5111587;28;20212;-74
2022/05/19 07:12:56;;;;;;;9.90;5.00;;;28.40;98.50;;;;;;5109755;27;20206;-73
2022/05/19 07:15:22;;;;;;;11.48;4.55;;;27.70;98.50;;;;;;5119893;27;20711;-74
2022/05/19 07:17:48;;;;;;;9.52;5.00;;;27.90;99.30;;;;;;5111860;28;20280;-74
2022/05/19 07:22:58;;;;;;;9.45;4.45;;;27.70;99.70;;;;;;5112572;28;20653;-75
2022/05/19 07:25:24;;;;;;;13.18;4.43;;;28.30;99.60;;;;;;5093575;28;20202;-73
2022/05/19 07:27:49;;;;;;;6.28;4.22;;;28.70;98.20;;;;;;5099058;28;20198;-70
2022/05/19 07:30:16;;;;;;;8.43;4.57;;;28.10;98.60;;;;;;5110749;27;20205;-71
2022/05/19 07:32:41;;;;;;;8.52;4.70;;;28.60;98.10;;;;;;5112624;27;20210;-70
2022/05/19 07:35:10;;;;;;;9.63;4.30;;;28.90;98.20;;;;;;5117968;27;20230;-71
2022/05/19 07:37:35;;;;;;;14.65;4.60;;;29.50;97.60;;;;;;5111813;28;20225;-74
2022/05/19 07:40:01;;;;;;;9.52;4.22;;;28.60;97.40;;;;;;5110960;28;20248;-74
2022/05/19 07:42:26;;;;;;;6.68;3.83;;;29.10;97.90;;;;;;5090458;28;20301;-75
2022/05/19 07:44:52;;;;;;;7.20;4.20;;;30.20;96.70;;;;;;5113379;27;20220;-72
2022/05/19 07:47:19;;;;;;;9.90;4.75;;;30.70;96.40;;;;;;5115904;27;20871;-71
2022/05/19 07:49:45;;;;;;;5.93;4.00;;;29.20;96.70;;;;;;5110614;28;20197;-73
2022/05/19 07:52:11;;;;;;;5.03;3.97;;;30.20;96.90;;;;;;5111525;28;20754;-72
2022/05/19 07:54:37;;;;;;;6.18;4.03;;;30.20;95.50;;;;;;5111361;28;20205;-72
2022/05/19 07:57:04;;;;;;;4.97;4.10;;;30.60;95.80;;;;;;5111383;28;20693;-72
2022/05/19 07:59:29;;;;;;;5.72;3.85;;;30.80;95.10;;;;;;5110141;28;20716;-72
2022/05/19 08:01:55;;;;;;;4.43;3.75;;;30.30;96.00;;;;;;5111665;28;20166;-72
2022/05/19 08:04:23;;;;;;;7.70;3.92;;;30.10;95.40;;;;;;5110894;28;20296;-73
2022/05/19 08:06:49;;;;;;;4.63;3.90;;;29.70;96.10;;;;;;5110576;28;20205;-74
2022/05/19 08:12:00;;;;;;;4.38;3.80;;;29.90;95.50;;;;;;5108577;28;20712;-73
2022/05/19 08:17:10;;;;;;;4.90;4.10;;;31.60;94.60;;;;;;5111648;28;20649;-74
2022/05/19 08:19:37;;;;;;;5.38;3.40;;;31.80;93.40;;;;;;5110228;28;20213;-73
2022/05/19 08:22:04;;;;;;;5.63;3.20;;;32.10;93.60;;;;;;5112350;27;20685;-73
2022/05/19 08:24:30;;;;;;;3.80;3.40;;;32.40;92.40;;;;;;5110811;28;20225;-73
2022/05/19 08:26:57;;;;;;;5.32;3.75;;;31.80;93.00;;;;;;5111155;28;20213;-74
2022/05/19 08:29:23;;;;;;;4.47;3.83;;;32.10;92.30;;;;;;5110115;28;20189;-74
2022/05/19 08:31:49;;;;;;;5.15;3.83;;;32.30;92.40;;;;;;5111530;28;20615;-75
2022/05/19 08:34:15;;;;;;;5.03;3.60;;;31.90;93.00;;;;;;5111295;28;20221;-73
2022/05/19 08:36:41;;;;;;;3.95;3.28;;;32.70;92.60;;;;;;5111028;28;20209;-74
2022/05/19 08:39:07;;;;;;;5.15;3.70;;;33.00;91.60;;;;;;5109956;28;20233;-75
2022/05/19 08:41:45;;;;;;;8.93;5.15;;;32.50;91.60;;;;;;5110295;28;20196;-73
2022/05/19 08:44:16;;;;;;;4.13;3.65;;;32.90;91.70;;;;;;5098094;28;20220;-73
2022/05/19 08:46:46;;;;;;;6.03;4.00;;;34.10;90.70;;;;;;5110714;28;20289;-74
2022/05/19 08:49:38;;;;;;;4.43;3.80;;;34.20;88.30;;;;;;5109784;28;20225;-73
2022/05/19 08:52:08;;;;;;;5.45;3.70;;;31.90;90.60;;;;;;5110706;28;20661;-74
2022/05/19 08:54:35;;;;;;;6.38;3.78;;;31.30;91.20;;;;;;5110693;28;20292;-74
2022/05/19 08:57:12;;;;;;;5.15;3.45;;;31.40;92.00;;;;;;5092259;28;20201;-74
2022/05/19 08:59:58;;;;;;;5.32;2.97;;;31.60;91.80;;;;;;5109435;28;20204;-71
2022/05/19 09:02:34;;;;;;;3.63;3.03;;;32.00;91.80;;;;;;5110445;28;20201;-74
2022/05/19 09:05:16;;;;;;;4.85;3.75;;;31.90;91.30;;;;;;5092722;28;20171;-73
2022/05/19 09:08:03;;;;;;;5.63;3.40;;;32.30;91.00;;;;;;5112469;27;20221;-72
2022/05/19 09:11:00;;;;;;;3.97;3.65;;;31.90;91.20;;;;;;5110160;28;20201;-74
2022/05/19 09:13:37;;;;;;;4.03;3.30;;;32.40;91.30;;;;;;5070274;28;20209;-73
2022/05/19 09:16:16;;;;;;;5.32;3.45;;;33.10;90.60;;;;;;5110841;28;20245;-72
2022/05/19 09:18:47;;;;;;;9.45;4.07;;;32.60;90.90;;;;;;5112354;28;20216;-71
2022/05/19 09:21:13;;;;;;;7.35;3.92;;;31.60;91.20;;;;;;5114785;27;20197;-74
2022/05/19 09:23:42;;;;;;;5.93;3.75;;;30.40;92.70;;;;;;5115298;27;20209;-74
2022/05/19 09:26:29;;;;;;;8.63;3.47;;;30.50;93.00;;;;;;5114655;28;20527;-73
2022/05/19 09:29:10;;;;;;;9.73;6.30;;;30.50;93.10;;;;;;5112081;28;20213;-73
2022/05/19 09:31:41;;;;;;;5.97;3.20;;;31.00;93.50;;;;;;5094626;28;20198;-75
2022/05/19 09:34:08;;;;;;;4.07;3.67;;;30.20;93.80;;;;;;5094364;28;20209;-76
2022/05/19 09:36:41;;;;;;;4.68;3.50;;;30.20;93.80;;;;;;5095927;28;20198;-76
2022/05/19 09:39:12;;;;;;;9.80;5.43;;;30.30;94.00;;;;;;5093706;28;20704;-76
2022/05/19 09:41:45;;;;;;;5.78;3.50;;;30.70;94.10;;;;;;5110005;28;20174;-76
2022/05/19 09:44:14;;;;;;;5.13;3.63;;;30.20;93.70;;;;;;5099615;28;20209;-76
2022/05/19 09:46:43;;;;;;;6.18;3.58;;;29.50;94.60;;;;;;5112862;28;20209;-76
2022/05/19 09:49:24;;;;;;;6.30;3.40;;;30.00;94.50;;;;;;5094905;28;20762;-75
2022/05/19 09:51:51;;;;;;;7.53;3.35;;;29.60;94.70;;;;;;5114010;28;20201;-76
2022/05/19 09:54:17;;;;;;;5.03;3.88;;;29.80;94.90;;;;;;5095970;28;20277;-75
2022/05/19 09:56:52;;;;;;;3.97;3.42;;;30.40;94.90;;;;;;5113863;28;20800;-75
2022/05/19 09:59:25;;;;;;;9.45;3.50;;;30.10;94.50;;;;;;5113277;28;20205;-76
2022/05/19 10:02:05;;;;;;;6.28;3.53;;;30.70;93.90;;;;;;5114260;28;20212;-75
2022/05/19 10:04:39;;;;;;;3.67;3.03;;;30.40;93.70;;;;;;5113489;28;20266;-76
2022/05/19 10:07:34;;;;;;;5.47;3.50;;;31.00;93.80;;;;;;5103816;28;20580;-75
2022/05/19 10:10:00;;;;;;;6.95;3.38;;;31.20;93.30;;;;;;5104227;28;20213;-75
2022/05/19 10:12:28;;;;;;;3.17;2.88;;;31.30;92.90;;;;;;5110715;28;20206;-75
2022/05/19 10:15:04;;;;;;;9.20;3.67;;;30.70;92.70;;;;;;5113674;28;20209;-77
2022/05/19 10:18:08;;;;;;;5.43;3.35;;;30.20;93.80;;;;;;5113360;28;20311;-76
2022/05/19 10:20:57;;;;;;;8.55;3.35;;;30.30;93.80;;;;;;5095142;28;20256;-75
2022/05/19 10:23:47;;;;;;;6.60;3.83;;;30.20;93.80;;;;;;5113291;28;20190;-75
2022/05/19 10:26:38;;;;;;;4.72;4.15;;;30.20;94.30;;;;;;5095679;28;20792;-74
2022/05/19 10:32:26;;;;;;;6.90;4.72;;;29.50;95.00;;;;;;5113015;27;20262;-74
2022/05/19 10:34:56;;;;;;;6.20;4.50;;;30.10;95.30;;;;;;5115578;27;20274;-75
2022/05/19 10:37:34;;;;;;;8.68;4.43;;;30.80;94.70;;;;;;5094314;28;20211;-75
2022/05/19 10:40:37;;;;;;;5.85;4.10;;;30.70;94.70;;;;;;5111796;28;20624;-73
2022/05/19 10:43:42;;;;;;;7.57;3.83;;;30.80;94.20;;;;;;5110018;28;20200;-74
2022/05/19 10:46:13;;;;;;;10.38;4.07;;;30.00;94.60;;;;;;5076921;28;20212;-73
2022/05/19 10:48:52;;;;;;;4.15;3.35;;;29.60;94.70;;;;;;5111749;28;20658;-73
2022/05/19 10:51:37;;;;;;;7.53;4.13;;;29.30;95.20;;;;;;5094275;28;20197;-73
2022/05/19 10:54:22;;;;;;;4.63;3.88;;;29.80;94.90;;;;;;5102373;28;20284;-73
2022/05/19 10:56:56;;;;;;;4.57;3.17;;;29.80;94.40;;;;;;5094237;28;20197;-71
2022/05/19 10:59:47;;;;;;;3.95;3.22;;;29.20;94.70;;;;;;5111711;28;20476;-73
2022/05/19 11:02:28;;;;;;;6.05;3.28;;;28.80;94.90;;;;;;5113332;28;20176;-73
2022/05/19 11:05:16;;;;;;;8.13;4.00;;;28.90;95.30;;;;;;5105397;28;20231;-73
2022/05/19 11:07:57;;;;;;;5.30;4.00;;;29.30;94.80;;;;;;5112034;28;20274;-74
2022/05/19 11:11:04;;;;;;;5.10;3.33;;;29.70;94.30;;;;;;5111713;28;20206;-73
2022/05/19 11:13:46;;;;;;;5.57;3.47;;;29.50;93.70;;;;;;5091395;28;20723;-72
2022/05/19 11:16:25;;;;;;;5.18;2.90;;;29.50;93.70;;;;;;5112514;28;20213;-73
2022/05/19 11:18:57;;;;;;;7.15;3.63;;;29.30;93.90;;;;;;5111740;28;20336;-74
2022/05/19 11:21:33;;;;;;;5.43;3.70;;;29.30;94.10;;;;;;5099263;27;20219;-73
2022/05/19 11:24:07;;;;;;;6.13;3.78;;;29.60;93.70;;;;;;5094022;28;20582;-72
2022/05/19 11:27:03;;;;;;;5.53;3.20;;;29.80;93.30;;;;;;5095220;28;20173;-75
2022/05/19 11:29:41;;;;;;;4.47;3.28;;;30.00;93.50;;;;;;5105970;28;20293;-74
2022/05/19 11:32:23;;;;;;;4.38;3.30;;;29.40;93.50;;;;;;5115748;27;20182;-72
2022/05/19 11:35:12;;;;;;;5.55;3.70;;;29.20;94.00;;;;;;5104859;28;20205;-74
2022/05/19 11:38:15;;;;;;;8.35;3.67;;;29.20;94.50;;;;;;5096899;28;20213;-74
2022/05/19 11:40:46;;;;;;;4.10;3.17;;;29.40;94.40;;;;;;5114783;27;20213;-72
2022/05/19 11:43:30;;;;;;;5.93;4.15;;;29.20;93.80;;;;;;5119892;27;20236;-73
2022/05/19 11:46:08;;;;;;;5.85;4.25;;;29.60;94.00;;;;;;5117024;27;20232;-74
2022/05/19 11:55:19;;;;;;;4.40;3.60;;;29.80;93.40;;;;;;5116088;27;20265;-70
2022/05/19 11:58:04;;;;;;;3.58;3.20;;;30.40;93.50;;;;;;5033491;28;20256;-72
2022/05/19 12:00:55;;;;;;;3.95;3.30;;;30.60;92.20;;;;;;5018100;28;20619;-72
2022/05/19 12:03:43;;;;;;;4.95;3.67;;;30.70;91.90;;;;;;5106194;27;20213;-72
2022/05/19 12:06:09;;;;;;;4.47;3.22;;;30.70;92.40;;;;;;5117695;27;20690;-72
2022/05/19 12:08:44;;;;;;;17.98;13.07;;;30.40;92.50;;;;;;5113091;27;20197;-74
2022/05/19 12:11:30;;;;;;;6.75;3.25;;;30.30;92.60;;;;;;5111535;28;20177;-72
2022/05/19 12:14:11;;;;;;;5.88;3.63;;;30.30;92.70;;;;;;5104153;28;20193;-74
2022/05/19 12:16:52;;;;;;;8.65;3.58;;;30.20;92.40;;;;;;5092993;28;20224;-75
2022/05/19 12:19:34;;;;;;;4.05;3.45;;;30.20;92.40;;;;;;5092581;28;20336;-75
2022/05/19 12:22:02;;;;;;;3.20;2.63;;;30.30;92.20;;;;;;5093117;28;20239;-76
2022/05/19 12:24:39;;;;;;;5.00;3.47;;;30.30;91.60;;;;;;5111650;28;20213;-75
2022/05/19 12:27:18;;;;;;;4.88;2.90;;;30.40;91.90;;;;;;5093103;28;20198;-75
2022/05/19 12:30:00;;;;;;;8.10;3.45;;;30.30;91.80;;;;;;5091970;28;20205;-75
2022/05/19 12:32:35;;;;;;;4.35;3.63;;;30.20;92.10;;;;;;5110658;28;20185;-75
2022/05/19 12:35:08;;;;;;;5.70;3.53;;;30.20;92.20;;;;;;5112423;28;20201;-74
2022/05/19 12:37:36;;;;;;;4.43;3.05;;;30.20;92.30;;;;;;5092447;28;20211;-74
2022/05/19 12:40:19;;;;;;;4.10;3.00;;;30.20;92.20;;;;;;5091920;28;20202;-75
2022/05/19 12:42:45;;;;;;;5.97;3.28;;;29.80;92.60;;;;;;5089886;28;20205;-75
2022/05/19 12:45:40;;;;;;;7.60;3.67;;;30.00;92.90;;;;;;5110664;28;20198;-75
2022/05/19 12:48:11;;;;;;;6.82;3.13;;;30.00;92.70;;;;;;5091614;28;20201;-74
2022/05/19 12:50:53;;;;;;;3.83;3.08;;;29.70;92.20;;;;;;5098752;28;20178;-74
2022/05/19 12:53:21;;;;;;;6.25;4.18;;;29.70;92.00;;;;;;5093156;28;20181;-73
2022/05/19 12:55:53;;;;;;;6.43;3.38;;;29.70;92.80;;;;;;5114215;28;20622;-74
2022/05/19 12:58:34;;;;;;;7.10;3.05;;;29.60;92.60;;;;;;5113256;28;20213;-73
2022/05/19 13:01:15;;;;;;;5.78;3.95;;;29.40;92.70;;;;;;5111599;27;20204;-75
2022/05/19 13:03:43;;;;;;;6.47;3.30;;;29.20;93.00;;;;;;5110433;27;20217;-75
2022/05/19 13:06:12;;;;;;;4.85;3.78;;;29.20;93.00;;;;;;5113675;28;20696;-72
2022/05/19 13:08:52;;;;;;;4.45;2.92;;;29.40;93.20;;;;;;5113044;28;20205;-72
2022/05/19 13:11:23;;;;;;;4.05;3.10;;;29.40;92.40;;;;;;5114488;28;20185;-74
2022/05/19 13:14:00;;;;;;;6.72;3.33;;;29.20;92.40;;;;;;5114213;28;20285;-75
2022/05/19 13:16:28;;;;;;;7.72;3.45;;;29.50;92.40;;;;;;5113680;28;20201;-74
2022/05/19 13:19:17;;;;;;;4.70;3.60;;;29.00;92.30;;;;;;5113228;28;20642;-72
2022/05/19 13:21:53;;;;;;;4.75;3.05;;;28.80;92.50;;;;;;5113959;28;20225;-72
2022/05/19 13:24:19;;;;;;;4.25;3.10;;;28.60;92.50;;;;;;5113614;28;20657;-74
2022/05/19 13:26:46;;;;;;;3.97;2.88;;;28.80;92.30;;;;;;5095371;28;20212;-74
2022/05/19 13:32:07;;;;;;;4.35;3.10;;;28.80;92.60;;;;;;5114647;28;20212;-75